Time;durP1;ratioP1;P1;durP2;ratioP2;P2;SDS_P1;SDS_P2;PMS_P1;PMS_P2;Temp;Humidity;BMP_temperature;BMP_pressure;BME280_temperature;BME280_humidity;BME280_pressure;Samples;Min_cycle;Max_cycle;Signal;HPM_P1;HPM_P2
2022/01/01 05:02:07;;;;;;;64.63;27.80;;;8.30;99.70;;;;;;4992143;28;20789;-65
2022/01/01 05:04:35;;;;;;;62.40;28.73;;;8.20;99.70;;;;;;4992590;28;20203;-65
2022/01/01 05:07:03;;;;;;;67.63;28.13;;;8.20;99.70;;;;;;4992907;28;20963;-65
2022/01/01 05:09:30;;;;;;;67.27;28.47;;;8.00;99.70;;;;;;4992859;28;20513;-65
2022/01/01 05:11:57;;;;;;;63.53;26.97;;;8.00;99.70;;;;;;4992689;28;20443;-64
2022/01/01 05:14:24;;;;;;;57.67;25.50;;;8.00;99.70;;;;;;4992928;28;20458;-65
2022/01/01 05:16:51;;;;;;;59.20;25.87;;;7.90;99.70;;;;;;4992774;28;20475;-65
2022/01/01 05:19:20;;;;;;;57.80;24.60;;;7.90;99.70;;;;;;4992629;28;20943;-65
2022/01/01 05:21:47;;;;;;;53.30;23.80;;;8.00;99.70;;;;;;4992531;28;20482;-65
2022/01/01 05:24:18;;;;;;;49.20;23.50;;;7.80;99.70;;;;;;4992868;28;20450;-66
2022/01/01 05:26:45;;;;;;;52.17;23.13;;;7.80;99.70;;;;;;4992674;28;20883;-65
2022/01/01 05:29:11;;;;;;;51.43;22.60;;;7.80;99.70;;;;;;4992288;28;21010;-65
2022/01/01 05:31:38;;;;;;;47.87;22.83;;;7.60;99.70;;;;;;4991854;28;20450;-66
2022/01/01 05:34:05;;;;;;;46.23;19.50;;;7.60;99.70;;;;;;4992576;28;20451;-65
2022/01/01 05:36:33;;;;;;;46.30;19.30;;;7.60;99.70;;;;;;4992215;28;20537;-65
2022/01/01 05:39:00;;;;;;;48.73;20.60;;;7.40;99.70;;;;;;4992112;28;20498;-65
2022/01/01 05:41:27;;;;;;;55.50;23.30;;;7.20;99.70;;;;;;4992017;28;20493;-66
2022/01/01 05:43:54;;;;;;;51.03;21.27;;;7.10;99.70;;;;;;4992669;28;20446;-66
2022/01/01 05:46:20;;;;;;;54.40;21.13;;;7.10;99.70;;;;;;4992039;28;20471;-64
2022/01/01 05:48:47;;;;;;;48.17;21.50;;;7.30;99.70;;;;;;4991925;28;20453;-65
2022/01/01 05:51:14;;;;;;;53.30;22.73;;;7.20;99.70;;;;;;4991996;28;20451;-65
2022/01/01 05:53:42;;;;;;;54.63;23.90;;;7.10;99.70;;;;;;4992034;28;20537;-64
2022/01/01 05:56:08;;;;;;;57.40;24.40;;;7.00;99.70;;;;;;4992011;28;20470;-64
2022/01/01 05:58:35;;;;;;;56.40;24.60;;;7.20;99.70;;;;;;4991738;28;20504;-64
2022/01/01 06:01:02;;;;;;;51.33;22.23;;;7.20;99.70;;;;;;4991819;28;20495;-66
2022/01/01 06:03:29;;;;;;;50.30;21.17;;;7.20;99.70;;;;;;4991249;28;20457;-65
2022/01/01 06:05:55;;;;;;;46.43;19.97;;;7.00;99.70;;;;;;4991934;28;20466;-65
2022/01/01 06:08:23;;;;;;;51.33;21.40;;;6.80;99.70;;;;;;4991358;28;20446;-65
2022/01/01 06:10:51;;;;;;;48.17;21.73;;;6.80;99.70;;;;;;4992054;28;20450;-65
2022/01/01 06:13:17;;;;;;;50.00;22.73;;;6.80;99.70;;;;;;4991852;28;20457;-65
2022/01/01 06:15:44;;;;;;;44.23;20.07;;;6.90;99.70;;;;;;4991906;28;20520;-65
2022/01/01 06:18:11;;;;;;;47.67;19.80;;;7.00;99.70;;;;;;4991171;28;20457;-67
2022/01/01 06:20:38;;;;;;;43.77;19.40;;;7.00;99.70;;;;;;4991787;28;20443;-65
2022/01/01 06:23:06;;;;;;;45.50;19.93;;;6.90;99.70;;;;;;4991771;28;20856;-65
2022/01/01 06:25:33;;;;;;;44.40;19.10;;;6.90;99.70;;;;;;4991694;28;20473;-65
2022/01/01 06:28:01;;;;;;;45.87;19.70;;;7.00;99.70;;;;;;4991069;28;20454;-65
2022/01/01 06:30:33;;;;;;;45.03;19.20;;;7.10;99.70;;;;;;4991067;28;20951;-66
2022/01/01 06:33:00;;;;;;;38.97;16.70;;;7.40;99.70;;;;;;4991653;28;20956;-67
2022/01/01 06:35:27;;;;;;;41.13;16.50;;;7.30;99.70;;;;;;4991440;28;20482;-65
2022/01/01 06:37:53;;;;;;;41.90;17.13;;;7.20;99.70;;;;;;4991039;28;20601;-64
2022/01/01 06:40:20;;;;;;;43.00;17.83;;;7.30;99.70;;;;;;4991771;28;20438;-64
2022/01/01 06:42:47;;;;;;;36.63;17.93;;;7.40;99.70;;;;;;4989081;28;20489;-66
2022/01/01 06:45:15;;;;;;;39.20;17.50;;;7.40;99.70;;;;;;4989355;28;20849;-65
2022/01/01 06:47:41;;;;;;;37.17;17.03;;;7.40;99.70;;;;;;4988860;28;20446;-67
2022/01/01 06:50:10;;;;;;;39.50;16.83;;;7.60;99.70;;;;;;4990735;28;20458;-65
2022/01/01 06:52:42;;;;;;;39.30;17.30;;;7.70;99.70;;;;;;4991721;28;20449;-65
2022/01/01 06:55:10;;;;;;;33.13;14.60;;;7.60;99.70;;;;;;4991578;28;20458;-65
2022/01/01 06:57:36;;;;;;;36.00;15.40;;;7.60;99.70;;;;;;4991515;28;20447;-65
2022/01/01 07:00:04;;;;;;;34.67;15.07;;;7.60;99.70;;;;;;4990545;28;20454;-65
2022/01/01 07:02:32;;;;;;;34.93;14.97;;;7.40;99.70;;;;;;4991362;28;20474;-64
2022/01/01 07:04:59;;;;;;;29.37;13.47;;;7.40;99.70;;;;;;4990761;28;20516;-64
2022/01/01 07:07:25;;;;;;;29.23;13.33;;;7.50;99.70;;;;;;4991599;28;20446;-65
2022/01/01 07:09:52;;;;;;;33.30;13.60;;;7.60;99.70;;;;;;4990702;28;20450;-65
2022/01/01 07:12:19;;;;;;;34.90;15.87;;;7.40;99.70;;;;;;4991360;28;20955;-65
2022/01/01 07:14:45;;;;;;;33.57;14.67;;;7.40;99.70;;;;;;4992818;28;20880;-65
2022/01/01 07:17:12;;;;;;;34.17;15.87;;;7.40;99.70;;;;;;4995210;28;20474;-66
2022/01/01 07:19:40;;;;;;;44.03;18.13;;;7.30;99.70;;;;;;4994558;28;20557;-66
2022/01/01 07:22:07;;;;;;;35.50;15.73;;;7.30;99.70;;;;;;4995166;28;20488;-65
2022/01/01 07:24:33;;;;;;;36.37;15.07;;;7.40;99.70;;;;;;4995196;28;20446;-66
2022/01/01 07:27:00;;;;;;;32.90;14.60;;;7.30;99.70;;;;;;4994495;28;20470;-66
2022/01/01 07:29:27;;;;;;;31.47;15.47;;;7.30;99.70;;;;;;4993548;28;20450;-65
2022/01/01 07:31:53;;;;;;;32.97;14.43;;;7.40;99.70;;;;;;4994046;28;21011;-67
2022/01/01 07:34:21;;;;;;;36.63;15.70;;;7.50;99.70;;;;;;4994899;28;20453;-65
2022/01/01 07:36:49;;;;;;;34.97;14.97;;;7.50;99.70;;;;;;4994819;28;20481;-65
2022/01/01 07:39:16;;;;;;;33.27;14.60;;;7.50;99.70;;;;;;4993524;28;20446;-66
2022/01/01 07:41:43;;;;;;;31.27;13.97;;;7.50;99.70;;;;;;4994724;28;20486;-66
2022/01/01 07:44:10;;;;;;;33.20;15.17;;;7.40;99.70;;;;;;4994782;28;20836;-68
2022/01/01 07:46:37;;;;;;;36.20;15.60;;;7.50;99.70;;;;;;4994555;28;20477;-65
2022/01/01 07:49:04;;;;;;;33.60;15.57;;;7.50;99.70;;;;;;4993535;28;20451;-64
2022/01/01 07:51:30;;;;;;;32.33;14.80;;;7.50;99.70;;;;;;4994553;28;20888;-66
2022/01/01 07:53:59;;;;;;;35.80;15.57;;;7.60;99.70;;;;;;4994550;28;20504;-66
2022/01/01 07:56:26;;;;;;;33.37;15.63;;;7.90;99.70;;;;;;4994341;28;20466;-65
2022/01/01 07:58:53;;;;;;;36.63;16.03;;;7.70;99.70;;;;;;4994109;28;20454;-66
2022/01/01 08:01:19;;;;;;;35.27;14.93;;;7.50;99.70;;;;;;4994260;28;20881;-66
2022/01/01 08:03:49;;;;;;;35.43;15.10;;;7.50;99.70;;;;;;4993550;28;20466;-65
2022/01/01 08:06:16;;;;;;;35.30;15.27;;;7.40;99.70;;;;;;4994330;28;20477;-65
2022/01/01 08:08:43;;;;;;;34.47;14.90;;;7.20;99.70;;;;;;4993873;28;20450;-66
2022/01/01 08:11:11;;;;;;;35.10;15.17;;;7.20;99.70;;;;;;4993944;28;20446;-65
2022/01/01 08:13:37;;;;;;;36.80;15.57;;;7.20;99.70;;;;;;4988187;28;20454;-65
2022/01/01 08:16:07;;;;;;;33.83;13.83;;;7.20;99.70;;;;;;4981916;28;20467;-65
2022/01/01 08:18:33;;;;;;;32.97;14.80;;;7.20;99.70;;;;;;4990905;28;20956;-66
2022/01/01 08:21:00;;;;;;;43.60;18.73;;;7.20;99.70;;;;;;4986179;28;20465;-67
2022/01/01 08:23:27;;;;;;;64.07;25.40;;;7.10;99.70;;;;;;4984819;28;20846;-66
2022/01/01 08:25:56;;;;;;;39.17;16.50;;;6.90;99.70;;;;;;4988432;28;20479;-66
2022/01/01 08:28:24;;;;;;;48.00;19.67;;;6.80;99.70;;;;;;4976369;28;20462;-65
2022/01/01 08:30:50;;;;;;;76.77;30.60;;;6.80;99.70;;;;;;4979301;28;20463;-65
2022/01/01 08:33:17;;;;;;;71.43;27.60;;;6.80;99.70;;;;;;4988391;28;20857;-67
2022/01/01 08:35:44;;;;;;;43.77;20.00;;;6.90;99.70;;;;;;4999053;28;20541;-66
2022/01/01 08:38:11;;;;;;;46.43;22.27;;;6.90;99.70;;;;;;5009447;28;20465;-64
2022/01/01 08:40:38;;;;;;;39.97;20.73;;;6.80;99.70;;;;;;5010927;28;20477;-66
2022/01/01 08:43:05;;;;;;;40.63;19.47;;;7.00;99.70;;;;;;5003980;28;20482;-65
2022/01/01 08:45:34;;;;;;;36.50;16.80;;;7.00;99.70;;;;;;4993183;28;21026;-67
2022/01/01 08:48:00;;;;;;;36.30;17.33;;;7.10;99.70;;;;;;5005079;28;20473;-66
2022/01/01 08:50:27;;;;;;;43.90;19.50;;;7.00;99.70;;;;;;5009411;28;20452;-65
2022/01/01 08:52:54;;;;;;;42.13;19.20;;;7.00;99.70;;;;;;5007042;28;20438;-67
2022/01/01 08:55:21;;;;;;;39.03;19.13;;;7.10;99.70;;;;;;4994995;28;20482;-66
2022/01/01 08:57:47;;;;;;;37.73;17.30;;;6.90;99.70;;;;;;4996451;28;20458;-67
2022/01/01 09:00:15;;;;;;;34.80;16.60;;;6.90;99.70;;;;;;5001891;28;20477;-65
2022/01/01 09:02:43;;;;;;;35.70;16.57;;;6.90;99.70;;;;;;5008757;28;20498;-62
2022/01/01 09:05:11;;;;;;;33.77;15.70;;;7.00;99.70;;;;;;5005817;28;20458;-66
2022/01/01 09:07:37;;;;;;;33.90;14.30;;;7.10;99.70;;;;;;5006167;28;20470;-67
2022/01/01 09:10:05;;;;;;;28.33;13.17;;;7.20;99.70;;;;;;5003860;28;20451;-66
2022/01/01 09:12:32;;;;;;;30.20;15.00;;;7.30;99.70;;;;;;5007720;28;20441;-66
2022/01/01 09:14:59;;;;;;;30.20;14.60;;;7.50;99.70;;;;;;5002633;28;20465;-65
2022/01/01 09:17:26;;;;;;;32.40;15.80;;;7.40;99.70;;;;;;5004673;28;20458;-66
2022/01/01 09:19:54;;;;;;;44.03;19.07;;;7.40;99.70;;;;;;5006737;28;20978;-66
2022/01/01 09:22:21;;;;;;;44.00;20.13;;;7.40;99.70;;;;;;5002358;28;20475;-65
2022/01/01 09:24:47;;;;;;;60.83;22.77;;;7.40;99.70;;;;;;5006200;28;20448;-65
2022/01/01 09:27:14;;;;;;;50.67;22.23;;;7.50;99.70;;;;;;5009265;28;20496;-67
2022/01/01 09:29:41;;;;;;;47.70;20.50;;;7.70;99.70;;;;;;4996236;28;20545;-65
2022/01/01 09:32:10;;;;;;;32.40;14.37;;;7.80;99.70;;;;;;5008529;28;20457;-65
2022/01/01 09:34:37;;;;;;;29.13;13.83;;;7.90;99.70;;;;;;5004316;28;20989;-66
2022/01/01 09:37:05;;;;;;;37.50;15.00;;;8.00;99.70;;;;;;4986442;28;20479;-65
2022/01/01 09:39:32;;;;;;;32.90;14.23;;;8.10;99.70;;;;;;4989646;28;20442;-65
2022/01/01 09:42:02;;;;;;;35.30;15.83;;;8.10;99.70;;;;;;4979722;28;20455;-65
2022/01/01 09:44:32;;;;;;;35.23;14.43;;;8.20;99.70;;;;;;4991267;28;20473;-65
2022/01/01 09:46:59;;;;;;;31.33;13.57;;;8.30;99.70;;;;;;4989373;28;20469;-65
2022/01/01 09:49:26;;;;;;;30.70;13.77;;;8.40;99.70;;;;;;4986036;28;20527;-65
2022/01/01 09:51:53;;;;;;;27.07;12.73;;;8.50;99.70;;;;;;4978586;28;20450;-65
2022/01/01 09:54:21;;;;;;;29.77;12.70;;;8.60;99.70;;;;;;4981517;28;20452;-66
2022/01/01 09:56:48;;;;;;;26.53;12.73;;;8.60;99.70;;;;;;4977748;28;20466;-65
2022/01/01 09:59:15;;;;;;;27.47;12.70;;;8.70;99.70;;;;;;4983822;28;20451;-64
2022/01/01 10:01:42;;;;;;;28.40;13.00;;;8.80;99.70;;;;;;4979106;28;20451;-65
2022/01/01 10:04:13;;;;;;;22.50;10.90;;;8.80;99.70;;;;;;4989778;28;20486;-66
2022/01/01 10:06:40;;;;;;;23.37;10.40;;;8.90;99.70;;;;;;4988613;28;20534;-65
2022/01/01 10:09:09;;;;;;;29.80;11.80;;;9.00;99.70;;;;;;4989558;28;20450;-65
2022/01/01 10:11:37;;;;;;;22.30;10.97;;;9.10;99.70;;;;;;4981786;28;20501;-65
2022/01/01 10:14:07;;;;;;;22.63;10.63;;;9.10;99.70;;;;;;4986977;28;20462;-65
2022/01/01 10:16:38;;;;;;;27.53;12.03;;;9.00;99.70;;;;;;4988627;28;20474;-67
2022/01/01 10:19:05;;;;;;;24.17;11.27;;;9.00;99.70;;;;;;4979225;28;20470;-65
2022/01/01 10:21:36;;;;;;;23.97;11.73;;;9.00;99.70;;;;;;4986446;28;20894;-65
2022/01/01 10:24:05;;;;;;;26.63;11.73;;;9.00;99.70;;;;;;4985290;28;20561;-65
2022/01/01 10:29:23;;;;;;;21.00;10.33;;;9.10;99.70;;;;;;4988554;28;20457;-65
2022/01/01 10:31:59;;;;;;;24.90;12.03;;;9.20;99.70;;;;;;4988794;28;21005;-66
2022/01/01 10:34:31;;;;;;;23.27;11.23;;;9.20;99.70;;;;;;4988912;28;20888;-65
2022/01/01 10:36:58;;;;;;;24.13;11.50;;;9.20;99.70;;;;;;4980618;28;20483;-65
2022/01/01 10:39:26;;;;;;;23.73;11.50;;;9.20;99.70;;;;;;4988156;28;20506;-65
2022/01/01 10:41:55;;;;;;;23.10;10.70;;;9.30;99.70;;;;;;4984779;28;20883;-67
2022/01/01 10:44:27;;;;;;;24.70;11.27;;;9.30;99.70;;;;;;4985751;28;20521;-65
2022/01/01 10:46:54;;;;;;;24.90;12.27;;;9.40;99.70;;;;;;4986685;28;20462;-65
2022/01/01 10:49:50;;;;;;;25.37;11.23;;;9.40;99.70;;;;;;4991893;28;20454;-64
2022/01/01 10:52:20;;;;;;;26.43;11.97;;;9.40;99.70;;;;;;4983930;28;20549;-67
2022/01/01 10:54:51;;;;;;;29.40;13.00;;;9.50;99.70;;;;;;4975843;28;20446;-65
2022/01/01 10:57:33;;;;;;;28.50;12.27;;;9.50;99.70;;;;;;4975920;28;20467;-65
2022/01/01 11:00:11;;;;;;;27.30;12.50;;;9.50;99.70;;;;;;4982408;28;20943;-65
2022/01/01 11:02:40;;;;;;;26.03;12.57;;;9.60;99.70;;;;;;4995534;28;20904;-66
2022/01/01 11:05:08;;;;;;;27.60;12.23;;;9.50;99.70;;;;;;4994636;28;20449;-65
2022/01/01 11:07:36;;;;;;;29.47;12.00;;;9.50;99.70;;;;;;4995482;28;20450;-65
2022/01/01 11:10:02;;;;;;;26.93;12.30;;;9.50;99.70;;;;;;4994910;28;20474;-66
2022/01/01 11:12:30;;;;;;;32.33;14.23;;;9.50;99.70;;;;;;4995483;28;20457;-66
2022/01/01 11:15:00;;;;;;;26.43;12.00;;;9.60;99.70;;;;;;4986331;28;20474;-65
2022/01/01 11:17:28;;;;;;;35.10;14.77;;;9.70;99.70;;;;;;4988436;28;20953;-67
2022/01/01 11:19:55;;;;;;;27.10;12.17;;;9.70;99.70;;;;;;4983183;28;20459;-66
2022/01/01 11:22:22;;;;;;;32.47;14.13;;;9.80;99.70;;;;;;4988465;28;20473;-67
2022/01/01 11:24:48;;;;;;;23.33;11.03;;;9.80;99.70;;;;;;4995524;28;20466;-66
2022/01/01 11:27:16;;;;;;;23.60;10.97;;;9.90;99.70;;;;;;4995112;28;20470;-67
2022/01/01 11:29:49;;;;;;;27.73;12.30;;;9.90;99.70;;;;;;4990829;28;20463;-66
2022/01/01 11:32:19;;;;;;;27.63;12.23;;;10.00;99.70;;;;;;4985180;28;20538;-66
2022/01/01 11:34:49;;;;;;;24.13;10.37;;;10.00;99.70;;;;;;4987183;28;20442;-68
2022/01/01 11:37:16;;;;;;;26.70;11.67;;;10.10;99.70;;;;;;4994641;28;20497;-67
2022/01/01 11:39:43;;;;;;;24.10;11.00;;;10.20;99.70;;;;;;4994179;28;20442;-65
2022/01/01 11:42:12;;;;;;;27.30;11.03;;;10.30;99.70;;;;;;4994818;28;20450;-67
2022/01/01 11:44:42;;;;;;;20.03;9.20;;;10.30;99.70;;;;;;4994835;28;20497;-67
2022/01/01 11:47:15;;;;;;;18.07;8.90;;;10.30;99.70;;;;;;4994679;28;20473;-66
2022/01/01 11:49:42;;;;;;;17.57;8.63;;;10.30;99.70;;;;;;4993744;28;20519;-66
2022/01/01 11:52:10;;;;;;;18.47;8.80;;;10.40;99.70;;;;;;4994523;28;20473;-66
2022/01/01 11:54:38;;;;;;;17.40;8.37;;;10.50;99.70;;;;;;4993763;28;20533;-67
2022/01/01 11:57:09;;;;;;;14.67;7.53;;;10.50;99.70;;;;;;4994365;28;20532;-66
2022/01/01 11:59:48;;;;;;;14.73;7.30;;;10.60;99.70;;;;;;4990137;28;20517;-65
2022/01/01 12:02:36;;;;;;;17.60;7.10;;;10.70;99.70;;;;;;4992009;28;20809;-65
2022/01/01 12:05:17;;;;;;;14.27;7.40;;;10.70;99.70;;;;;;4992837;28;20438;-64
2022/01/01 12:07:49;;;;;;;18.90;8.07;;;10.60;99.70;;;;;;4991084;28;20447;-66
2022/01/01 12:10:18;;;;;;;14.23;7.00;;;10.70;99.70;;;;;;4993887;28;20513;-67
2022/01/01 12:12:48;;;;;;;13.30;6.80;;;10.70;99.70;;;;;;4994256;28;20454;-65
2022/01/01 12:15:26;;;;;;;15.53;6.70;;;10.70;99.70;;;;;;4994202;28;20562;-66
2022/01/01 12:18:00;;;;;;;15.20;7.60;;;10.70;99.70;;;;;;4993789;28;20501;-65
2022/01/01 12:20:29;;;;;;;17.40;7.53;;;10.80;99.70;;;;;;4993862;28;20458;-66
2022/01/01 12:22:58;;;;;;;13.37;6.80;;;10.80;99.70;;;;;;4985226;28;20478;-65
2022/01/01 12:25:27;;;;;;;12.97;6.03;;;10.80;99.70;;;;;;4990851;28;20498;-66
2022/01/01 12:27:56;;;;;;;16.60;7.70;;;10.80;99.70;;;;;;4985327;28;20498;-67
2022/01/01 12:30:48;;;;;;;15.27;7.37;;;10.90;99.70;;;;;;4993516;28;20454;-66
2022/01/01 12:33:26;;;;;;;15.20;7.20;;;11.10;99.70;;;;;;4975546;28;20474;-66
2022/01/01 12:35:56;;;;;;;14.40;7.03;;;11.10;99.70;;;;;;4986292;28;20488;-65
2022/01/01 12:38:27;;;;;;;17.10;8.00;;;11.00;99.70;;;;;;4985105;28;20446;-65
2022/01/01 12:41:06;;;;;;;15.03;7.23;;;11.10;99.70;;;;;;4993438;28;20453;-67
2022/01/01 12:43:42;;;;;;;13.20;7.47;;;11.10;99.70;;;;;;4992863;28;21025;-66
2022/01/01 12:46:12;;;;;;;16.17;7.20;;;11.20;99.70;;;;;;4993623;28;20561;-66
2022/01/01 12:48:39;;;;;;;14.60;7.30;;;11.20;99.70;;;;;;4993188;28;20830;-66
2022/01/01 12:51:08;;;;;;;14.50;7.10;;;11.20;99.70;;;;;;4990492;28;20455;-65
2022/01/01 12:53:38;;;;;;;19.67;8.93;;;11.20;99.70;;;;;;4985277;28;21000;-67
2022/01/01 12:56:08;;;;;;;16.13;7.40;;;11.20;99.70;;;;;;4982182;28;20491;-66
2022/01/01 12:58:37;;;;;;;53.47;19.13;;;11.20;99.70;;;;;;4985656;28;20462;-65
2022/01/01 13:01:15;;;;;;;30.67;13.00;;;11.30;99.70;;;;;;4983114;28;20470;-66
2022/01/01 13:03:44;;;;;;;19.30;8.93;;;11.30;99.70;;;;;;4984332;28;20499;-63
2022/01/01 13:06:12;;;;;;;19.80;8.60;;;11.20;99.70;;;;;;4981448;28;20470;-68
2022/01/01 13:08:44;;;;;;;20.40;8.30;;;11.20;99.70;;;;;;4982918;28;20541;-65
2022/01/01 13:11:13;;;;;;;14.07;7.30;;;11.40;99.70;;;;;;4982546;28;20447;-66
2022/01/01 13:13:41;;;;;;;18.20;8.00;;;11.40;99.70;;;;;;4983586;28;21123;-65
2022/01/01 13:16:08;;;;;;;18.33;7.87;;;11.40;99.70;;;;;;4982891;28;20470;-66
2022/01/01 13:18:34;;;;;;;14.63;7.43;;;11.40;99.70;;;;;;4983245;28;20440;-66
2022/01/01 13:21:02;;;;;;;16.33;8.57;;;11.40;99.70;;;;;;4982751;28;20438;-66
2022/01/01 13:23:29;;;;;;;21.20;9.47;;;11.30;99.70;;;;;;4985742;28;20479;-66
2022/01/01 13:25:57;;;;;;;19.93;8.20;;;11.40;99.70;;;;;;4992917;28;20470;-66
2022/01/01 13:28:24;;;;;;;14.50;7.07;;;11.40;99.70;;;;;;4992473;28;20839;-66
2022/01/01 13:30:53;;;;;;;14.60;7.30;;;11.40;99.70;;;;;;4992502;28;20478;-65
2022/01/01 13:33:22;;;;;;;14.40;6.97;;;11.50;99.70;;;;;;4992686;28;20439;-65
2022/01/01 13:35:50;;;;;;;12.67;6.93;;;11.50;99.70;;;;;;4990358;28;20465;-65
2022/01/01 13:38:17;;;;;;;16.13;7.30;;;11.50;99.70;;;;;;5000837;28;20447;-65
2022/01/01 13:40:45;;;;;;;14.47;7.27;;;11.50;99.70;;;;;;4999902;28;20451;-64
2022/01/01 13:43:13;;;;;;;11.17;6.17;;;11.40;99.70;;;;;;5000393;28;20443;-64
2022/01/01 13:45:40;;;;;;;13.53;6.73;;;11.40;99.70;;;;;;5001204;28;20848;-65
2022/01/01 13:48:09;;;;;;;15.10;7.23;;;11.30;99.70;;;;;;4997812;28;20466;-65
2022/01/01 13:50:40;;;;;;;14.87;6.87;;;11.30;99.70;;;;;;5000195;28;20560;-66
2022/01/01 13:53:08;;;;;;;14.90;7.10;;;11.40;99.70;;;;;;5001804;28;20448;-65
2022/01/01 13:55:36;;;;;;;16.10;6.60;;;11.40;99.70;;;;;;5000379;28;20554;-65
2022/01/01 13:58:04;;;;;;;14.67;7.20;;;11.30;99.70;;;;;;4999809;28;20441;-65
2022/01/01 14:00:33;;;;;;;14.80;7.03;;;11.30;99.70;;;;;;5006406;28;20446;-67
2022/01/01 14:03:00;;;;;;;13.63;6.87;;;11.10;99.70;;;;;;5001870;28;20442;-65
2022/01/01 14:05:28;;;;;;;15.07;7.60;;;11.10;99.70;;;;;;5002012;28;20505;-67
2022/01/01 14:08:11;;;;;;;13.87;6.83;;;11.00;99.70;;;;;;4999338;28;20862;-67
2022/01/01 14:10:38;;;;;;;13.60;7.07;;;10.90;99.70;;;;;;5000807;28;20463;-65
2022/01/01 14:13:05;;;;;;;14.83;7.40;;;10.80;99.70;;;;;;5003783;28;21009;-65
2022/01/01 14:15:34;;;;;;;14.07;6.87;;;10.70;99.70;;;;;;4999669;28;20544;-68
2022/01/01 14:18:04;;;;;;;22.83;11.03;;;10.60;99.70;;;;;;5001373;28;20452;-65
2022/01/01 14:20:32;;;;;;;22.27;10.70;;;10.70;99.70;;;;;;5002132;28;20454;-65
2022/01/01 14:23:01;;;;;;;24.80;10.97;;;10.60;99.70;;;;;;5000164;28;20851;-66
2022/01/01 14:25:30;;;;;;;20.80;9.50;;;10.70;99.70;;;;;;5001923;28;20477;-67
2022/01/01 14:28:00;;;;;;;19.37;8.50;;;10.60;99.70;;;;;;5000484;28;20826;-67
2022/01/01 14:30:28;;;;;;;16.27;7.47;;;10.50;99.70;;;;;;5000320;28;20808;-65
2022/01/01 14:32:58;;;;;;;15.73;7.50;;;10.50;99.70;;;;;;4997832;28;20455;-67
2022/01/01 14:35:28;;;;;;;13.20;6.90;;;10.50;99.70;;;;;;5000778;28;20811;-65
2022/01/01 14:37:56;;;;;;;16.23;7.63;;;10.40;99.70;;;;;;5000348;28;20434;-66
2022/01/01 14:40:23;;;;;;;22.20;11.20;;;10.30;99.70;;;;;;5003741;28;20454;-66
2022/01/01 14:42:50;;;;;;;17.60;9.27;;;10.20;99.70;;;;;;5000255;28;20464;-66
2022/01/01 14:45:17;;;;;;;19.43;8.97;;;10.20;99.70;;;;;;5000611;28;20488;-66
2022/01/01 14:47:53;;;;;;;18.07;8.80;;;10.10;99.70;;;;;;5002659;28;20974;-67
2022/01/01 14:50:21;;;;;;;16.57;8.10;;;10.10;99.70;;;;;;5001082;28;20462;-64
2022/01/01 14:52:56;;;;;;;19.37;8.13;;;10.00;99.70;;;;;;5000561;28;20451;-65
2022/01/01 14:55:26;;;;;;;20.83;8.63;;;9.90;99.70;;;;;;4999877;28;20481;-65
2022/01/01 14:57:56;;;;;;;17.17;7.97;;;9.90;99.70;;;;;;4999987;28;20439;-65
2022/01/01 15:00:24;;;;;;;19.83;8.63;;;9.80;99.70;;;;;;4999587;28;20455;-66
2022/01/01 15:02:52;;;;;;;18.10;8.80;;;9.70;99.70;;;;;;5002279;28;20442;-67
2022/01/01 15:05:21;;;;;;;19.67;9.00;;;9.60;99.70;;;;;;5001693;28;20492;-65
2022/01/01 15:07:49;;;;;;;19.53;9.17;;;9.50;99.70;;;;;;5000429;28;20484;-68
2022/01/01 15:10:20;;;;;;;17.80;9.37;;;9.40;99.70;;;;;;4997472;28;20454;-65
2022/01/01 15:12:47;;;;;;;24.73;11.00;;;9.40;99.70;;;;;;5005397;28;20520;-65
2022/01/01 15:15:14;;;;;;;22.37;10.60;;;9.30;99.70;;;;;;4998696;28;20517;-66
2022/01/01 15:17:43;;;;;;;23.10;10.37;;;9.20;99.70;;;;;;4998987;28;20450;-67
2022/01/01 15:20:11;;;;;;;21.37;10.70;;;9.10;99.70;;;;;;5000155;28;20465;-65
2022/01/01 15:22:51;;;;;;;19.40;10.20;;;9.00;99.70;;;;;;4998122;28;20446;-65
2022/01/01 15:25:21;;;;;;;20.57;9.80;;;9.00;99.70;;;;;;4998214;28;20557;-65
2022/01/01 15:27:50;;;;;;;19.70;9.67;;;8.90;99.70;;;;;;5003586;28;20835;-67
2022/01/01 15:30:29;;;;;;;18.40;8.70;;;8.80;99.70;;;;;;4999433;28;20599;-66
2022/01/01 15:36:00;;;;;;;17.43;8.60;;;8.80;99.70;;;;;;4913897;29;20454;-67
2022/01/01 15:38:32;;;;;;;21.00;9.50;;;8.70;99.70;;;;;;4971399;28;20946;-66
2022/01/01 15:41:04;;;;;;;23.60;10.70;;;8.70;99.70;;;;;;4993032;28;20486;-66
2022/01/01 15:43:32;;;;;;;25.60;12.83;;;8.70;99.70;;;;;;4994669;28;20528;-63
2022/01/01 15:45:59;;;;;;;26.90;11.67;;;8.60;99.70;;;;;;4990052;28;21033;-66
2022/01/01 15:48:27;;;;;;;30.33;14.50;;;8.60;99.70;;;;;;4994356;28;20447;-64
2022/01/01 15:50:54;;;;;;;35.00;15.67;;;8.70;99.70;;;;;;4994358;28;20457;-66
2022/01/01 15:53:22;;;;;;;30.47;14.77;;;8.60;99.70;;;;;;4994506;28;20838;-65
2022/01/01 15:55:55;;;;;;;28.93;15.40;;;8.60;99.70;;;;;;4994284;28;20474;-65
2022/01/01 15:58:23;;;;;;;31.40;14.30;;;8.50;99.70;;;;;;4994300;28;20473;-65
2022/01/01 16:00:50;;;;;;;33.77;15.53;;;8.40;99.70;;;;;;4994101;28;20442;-65
2022/01/01 16:03:26;;;;;;;30.03;14.90;;;8.40;99.70;;;;;;4991523;28;20466;-65
2022/01/01 16:05:56;;;;;;;48.17;21.17;;;8.50;99.70;;;;;;4994081;28;20487;-65
2022/01/01 16:08:25;;;;;;;45.87;21.60;;;8.40;99.70;;;;;;4984528;28;20468;-65
2022/01/01 16:10:55;;;;;;;51.73;24.00;;;8.40;99.70;;;;;;4989363;28;20841;-65
2022/01/01 16:13:24;;;;;;;102.83;40.07;;;8.30;99.70;;;;;;4985066;28;20462;-66
2022/01/01 16:15:58;;;;;;;158.20;54.60;;;8.30;99.70;;;;;;4987040;28;20494;-65
2022/01/01 16:18:35;;;;;;;121.43;45.50;;;8.20;99.70;;;;;;4983705;28;20505;-65
2022/01/01 16:21:03;;;;;;;116.07;43.90;;;8.40;99.70;;;;;;4979334;28;20459;-65
2022/01/01 16:23:30;;;;;;;95.77;38.10;;;8.30;99.70;;;;;;4971132;28;20455;-69
2022/01/01 16:25:59;;;;;;;81.40;35.67;;;8.20;99.70;;;;;;4982817;28;20490;-65
2022/01/01 16:28:26;;;;;;;79.83;32.53;;;8.00;99.70;;;;;;4984839;28;20586;-66
2022/01/01 16:30:53;;;;;;;75.33;33.60;;;7.90;99.70;;;;;;4992416;28;20446;-65
2022/01/01 16:33:22;;;;;;;63.80;30.80;;;7.90;99.70;;;;;;4988550;28;20463;-68
2022/01/01 16:35:50;;;;;;;27.90;13.10;;;8.00;99.70;;;;;;4987466;28;20467;-68
2022/01/01 16:38:18;;;;;;;34.20;16.47;;;8.20;99.70;;;;;;4983480;28;20979;-66
2022/01/01 16:40:53;;;;;;;41.10;20.70;;;8.10;99.70;;;;;;4987713;28;20442;-65
2022/01/01 16:43:23;;;;;;;47.13;22.23;;;7.90;99.70;;;;;;4991840;28;20441;-65
2022/01/01 16:45:55;;;;;;;52.67;27.30;;;7.80;99.70;;;;;;4989478;28;21016;-67
2022/01/01 16:48:28;;;;;;;56.13;26.20;;;7.70;99.70;;;;;;4980454;28;20455;-67
2022/01/01 16:50:58;;;;;;;84.00;37.90;;;7.70;99.70;;;;;;4992502;28;20450;-69
2022/01/01 16:53:25;;;;;;;136.03;50.27;;;7.70;99.70;;;;;;4974901;28;20454;-69
2022/01/01 16:55:55;;;;;;;126.70;50.57;;;7.70;99.70;;;;;;4985381;28;20470;-69
2022/01/01 16:58:26;;;;;;;141.80;54.50;;;7.70;99.70;;;;;;4990340;28;20466;-69
2022/01/01 17:00:55;;;;;;;125.90;48.77;;;7.70;99.70;;;;;;4983410;28;20466;-69
2022/01/01 17:03:38;;;;;;;134.87;55.53;;;7.60;99.70;;;;;;4992405;28;20457;-69
2022/01/01 17:06:05;;;;;;;106.97;46.30;;;7.60;99.70;;;;;;4983203;28;20526;-69
2022/01/01 17:08:32;;;;;;;96.47;44.00;;;7.50;99.70;;;;;;4988359;28;20955;-69
2022/01/01 17:10:58;;;;;;;93.00;43.00;;;7.40;99.70;;;;;;4990104;28;20834;-69
2022/01/01 17:13:28;;;;;;;77.10;35.90;;;7.40;99.70;;;;;;4991494;28;20465;-69
2022/01/01 17:16:04;;;;;;;83.30;38.77;;;7.50;99.70;;;;;;4989906;28;20490;-69
2022/01/01 17:18:41;;;;;;;69.50;30.77;;;7.50;99.70;;;;;;4991369;28;20454;-69
2022/01/01 17:21:12;;;;;;;62.07;27.97;;;7.60;99.70;;;;;;4989904;28;20447;-69
2022/01/01 17:23:55;;;;;;;55.07;23.93;;;7.60;99.70;;;;;;4990363;28;20450;-69
2022/01/01 17:26:25;;;;;;;65.87;27.80;;;7.60;99.70;;;;;;4988906;28;21018;-69
2022/01/01 17:29:00;;;;;;;85.17;33.67;;;7.40;99.70;;;;;;4982508;28;20838;-69
2022/01/01 17:31:30;;;;;;;110.20;43.03;;;7.30;99.70;;;;;;4982437;28;20461;-69
2022/01/01 17:34:09;;;;;;;93.40;39.77;;;7.30;99.70;;;;;;4988443;28;20458;-68
2022/01/01 17:37:02;;;;;;;80.53;33.20;;;7.30;99.70;;;;;;4996657;28;20557;-69
2022/01/01 17:42:19;;;;;;;78.67;33.33;;;7.40;99.70;;;;;;4999149;28;20939;-68
2022/01/01 17:44:49;;;;;;;78.43;32.17;;;7.30;99.70;;;;;;5004301;28;20488;-69
2022/01/01 17:47:18;;;;;;;78.83;33.17;;;7.30;99.70;;;;;;5006077;28;21302;-69
2022/01/01 17:49:48;;;;;;;69.73;26.30;;;7.20;99.70;;;;;;5006776;28;20849;-69
2022/01/01 17:52:17;;;;;;;60.43;27.43;;;7.10;99.70;;;;;;5006629;28;20481;-69
2022/01/01 17:54:44;;;;;;;57.93;27.10;;;7.20;99.70;;;;;;5003103;28;20448;-69